createdAt,value
2023-01-13T00:02:11.190Z,100160.41
2023-01-13T00:06:19.178Z,100162.75
2023-01-13T00:10:20.950Z,100155.78
2023-01-13T00:14:22.925Z,100163.09
2023-01-13T00:18:25.454Z,100158.78
2023-01-13T00:22:27.165Z,100163.75
2023-01-13T00:26:35.753Z,100154.09
2023-01-13T00:30:38.543Z,100131.97
2023-01-13T00:34:40.308Z,100129.47
2023-01-13T00:38:43.194Z,100127.16
2023-01-13T00:43:03.550Z,100129.47
2023-01-13T00:47:05.421Z,100110.66
2023-01-13T00:51:17.080Z,100128.47
2023-01-13T00:55:18.764Z,100119.00
2023-01-13T00:59:20.578Z,100094.38
2023-01-13T01:03:22.481Z,100100.88
2023-01-13T01:07:24.177Z,100095.88
2023-01-13T01:11:31.368Z,100103.22
2023-01-13T01:15:33.101Z,100113.19
2023-01-13T01:19:37.533Z,100120.53
2023-01-13T01:23:40.329Z,100122.53
2023-01-13T01:27:42.041Z,100117.19
2023-01-13T01:31:44.193Z,100120.53
2023-01-13T01:35:46.035Z,100123.84
2023-01-13T01:39:47.778Z,100115.03
2023-01-13T01:44:02.548Z,100107.38
2023-01-13T01:48:06.149Z,100083.59
2023-01-13T01:52:20.395Z,100103.41
2023-01-13T01:56:22.200Z,100108.91
2023-01-13T02:00:26.452Z,100098.56
2023-01-13T02:04:36.436Z,100096.72
2023-01-13T02:08:40.633Z,100094.25
2023-01-13T02:12:44.804Z,100080.94
2023-01-13T02:17:11.258Z,100081.59
2023-01-13T02:22:03.074Z,100076.78
2023-01-13T02:26:28.210Z,100081.09
2023-01-13T02:31:06.840Z,100069.63
2023-01-13T02:35:18.239Z,100067.97
2023-01-13T02:39:51.101Z,100072.47
2023-01-13T02:44:07.252Z,100069.63
2023-01-13T02:48:10.895Z,100073.97
2023-01-13T02:52:19.530Z,100083.59
2023-01-13T02:56:24.220Z,100074.63
2023-01-13T03:00:27.586Z,100079.94
2023-01-13T03:04:46.498Z,100061.13
2023-01-13T03:08:59.150Z,100086.75
2023-01-13T03:13:01.081Z,100082.25
2023-01-13T03:17:22.082Z,100076.13
2023-01-13T03:21:44.740Z,100071.13
2023-01-13T03:26:11.122Z,100089.09
2023-01-13T03:30:18.124Z,100058.34
2023-01-13T03:34:25.163Z,100063.28
2023-01-13T03:38:34.157Z,100056.84
2023-01-13T03:42:38.415Z,100065.16
2023-01-13T03:47:06.476Z,100052.34
2023-01-13T03:51:14.008Z,100066.00
2023-01-13T03:55:19.919Z,100071.66
2023-01-13T03:59:28.118Z,100080.63
2023-01-13T04:03:38.459Z,100080.78
2023-01-13T04:07:59.191Z,100077.97
2023-01-13T04:12:08.315Z,100088.63
2023-01-13T04:16:11.478Z,100076.31
2023-01-13T04:20:13.783Z,100071.31
2023-01-13T04:24:15.538Z,100068.00
2023-01-13T04:28:18.833Z,100067.16
2023-01-13T04:32:20.547Z,100061.00
2023-01-13T04:36:27.605Z,100062.66
2023-01-13T04:40:29.492Z,100071.84
2023-01-13T04:44:35.250Z,100072.66
2023-01-13T04:48:36.941Z,100079.47
2023-01-13T04:52:39.393Z,100075.63
2023-01-13T04:56:41.103Z,100094.06
2023-01-13T05:00:42.991Z,100090.44
2023-01-13T05:04:44.720Z,100079.94
2023-01-13T05:08:46.518Z,100062.00
2023-01-13T05:13:06.854Z,100071.50
2023-01-13T05:17:11.013Z,100059.66
2023-01-13T05:21:32.673Z,100057.00
2023-01-13T05:25:37.938Z,100057.69
2023-01-13T05:29:39.699Z,100064.66
2023-01-13T05:33:41.417Z,100073.63
2023-01-13T05:37:44.756Z,100075.28
2023-01-13T05:42:04.977Z,100078.97
2023-01-13T05:46:10.189Z,100078.13
2023-01-13T05:50:11.991Z,100065.31
2023-01-13T05:54:13.887Z,100086.59
2023-01-13T05:58:17.319Z,100082.97
2023-01-13T06:02:19.036Z,100086.25
2023-01-13T06:06:21.756Z,100084.94
2023-01-13T06:10:24.231Z,100087.59
2023-01-13T06:14:25.970Z,100090.94
2023-01-13T06:18:27.956Z,100089.91
2023-01-13T06:22:35.791Z,100092.56
2023-01-13T06:26:40.737Z,100096.75
2023-01-13T06:30:46.784Z,100110.69
2023-01-13T06:34:58.291Z,100101.56
2023-01-13T06:39:02.104Z,100119.16
2023-01-13T06:43:17.147Z,100115.34
2023-01-13T06:47:19.495Z,100123.16
2023-01-13T06:51:21.211Z,100108.03
2023-01-13T06:55:22.954Z,100112.22
2023-01-13T06:59:25.298Z,100110.56
2023-01-13T07:03:26.992Z,100128.19
2023-01-13T07:07:28.704Z,100127.34
2023-01-13T07:11:30.411Z,100117.53
2023-01-13T07:15:32.137Z,100137.16
2023-01-13T07:19:33.865Z,100125.69
2023-01-13T07:23:40.701Z,100129.19
2023-01-13T07:27:42.441Z,100120.50
2023-01-13T07:31:44.640Z,100131.13
2023-01-13T07:35:48.087Z,100103.88
2023-01-13T07:39:50.340Z,100141.13
2023-01-13T07:43:52.667Z,100141.97
2023-01-13T07:47:54.423Z,100140.13
2023-01-13T07:51:56.167Z,100159.59
2023-01-13T07:55:59.184Z,100158.75
2023-01-13T08:00:00.902Z,100162.44
2023-01-13T08:04:02.937Z,100164.59
2023-01-13T08:08:04.805Z,100173.72
2023-01-13T08:12:25.092Z,100181.06
2023-01-13T08:16:26.878Z,100202.34
2023-01-13T08:20:28.716Z,100199.34
2023-01-13T08:24:30.458Z,100199.84
2023-01-13T08:28:32.513Z,100201.00
2023-01-13T08:32:34.278Z,100200.84
2023-01-13T08:36:36.169Z,100216.63
2023-01-13T08:40:40.246Z,100212.00
2023-01-13T08:44:42.006Z,100213.63
2023-01-13T08:48:43.741Z,100205.81
2023-01-13T08:52:45.589Z,100204.97
2023-01-13T08:56:47.454Z,100225.28
2023-01-13T09:00:49.347Z,100218.13
2023-01-13T09:04:51.587Z,100240.25
2023-01-13T09:08:53.477Z,100248.72
2023-01-13T09:13:13.563Z,100252.53
2023-01-13T09:17:15.621Z,100244.75
2023-01-13T09:21:19.830Z,100257.53
2023-01-13T09:25:21.616Z,100267.22
2023-01-13T09:29:23.981Z,100259.88
2023-01-13T09:33:44.420Z,100276.56
2023-01-13T09:37:46.186Z,100272.91
2023-01-13T09:42:12.178Z,100307.19
2023-01-13T09:46:43.365Z,100289.38
2023-01-13T09:50:53.977Z,100289.19
2023-01-13T09:55:06.051Z,100301.53
2023-01-13T09:59:11.483Z,100315.66
2023-01-13T10:03:22.345Z,100317.13
2023-01-13T10:07:24.249Z,100324.97
2023-01-13T10:11:55.571Z,100337.47
2023-01-13T10:16:13.977Z,100347.09
2023-01-13T10:20:26.143Z,100340.94
2023-01-13T10:25:00.272Z,100353.25
2023-01-13T10:29:02.041Z,100359.41
2023-01-13T10:33:11.931Z,100379.06
2023-01-13T10:37:25.946Z,100357.75
2023-01-13T10:41:28.319Z,100348.75
2023-01-13T10:45:30.053Z,100361.09
2023-01-13T10:49:38.676Z,100375.88
2023-01-13T10:54:03.081Z,100388.06
2023-01-13T10:58:21.525Z,100394.03
2023-01-13T11:02:32.015Z,100390.91
2023-01-13T11:06:35.497Z,100395.91
2023-01-13T11:10:47.083Z,100415.38
2023-01-13T11:14:49.780Z,100404.53
2023-01-13T11:19:13.155Z,100416.84
2023-01-13T11:23:25.471Z,100419.19
2023-01-13T11:27:43.247Z,100439.16
2023-01-13T11:32:00.331Z,100442.34
2023-01-13T11:36:13.662Z,100417.03
2023-01-13T11:40:31.334Z,100441.53
2023-01-13T11:44:41.536Z,100439.53
2023-01-13T11:48:43.823Z,100441.38
2023-01-13T11:53:07.732Z,100453.00
2023-01-13T11:57:39.953Z,100455.66
2023-01-13T12:02:12.806Z,100453.00
2023-01-13T12:06:30.142Z,100462.00
2023-01-13T12:11:01.209Z,100468.34
2023-01-13T12:15:24.136Z,100458.69
2023-01-13T12:19:29.248Z,100483.31
2023-01-13T12:23:38.835Z,100476.16
2023-01-13T12:27:51.767Z,100500.94
2023-01-13T12:31:53.953Z,100493.66
2023-01-13T12:36:23.217Z,100496.97
2023-01-13T12:40:42.734Z,100512.13
2023-01-13T12:45:12.465Z,100514.78
2023-01-13T12:49:23.412Z,100511.28
2023-01-13T12:53:36.376Z,100509.31
2023-01-13T12:57:39.599Z,100534.94
2023-01-13T13:01:41.450Z,100533.63
2023-01-13T13:05:48.930Z,100548.59
2023-01-13T13:09:54.935Z,100554.78
2023-01-13T13:13:56.711Z,100565.28
2023-01-13T13:18:17.007Z,100568.94
2023-01-13T13:22:21.635Z,100568.25
2023-01-13T13:26:26.038Z,100590.56
2023-01-13T13:30:35.860Z,100581.75
2023-01-13T13:34:43.937Z,100593.25
2023-01-13T13:39:32.051Z,100587.91
2023-01-13T13:44:03.727Z,100599.56
2023-01-13T13:48:20.909Z,100613.84
2023-01-13T13:52:31.842Z,100630.00
2023-01-13T13:56:40.745Z,100634.66
2023-01-13T14:00:47.957Z,100635.84
2023-01-13T14:04:49.710Z,100639.81
2023-01-13T14:08:51.451Z,100646.28
2023-01-13T14:12:53.148Z,100660.75
2023-01-13T14:16:55.147Z,100655.41
2023-01-13T14:21:04.810Z,100646.06
2023-01-13T14:25:28.296Z,100656.72
2023-01-13T14:29:30.113Z,100674.72
2023-01-13T14:33:47.386Z,100658.56
2023-01-13T14:37:50.586Z,100670.72
2023-01-13T14:41:53.478Z,100696.38
2023-01-13T14:46:01.159Z,100702.34
2023-01-13T14:50:19.327Z,100708.38
2023-01-13T14:54:50.385Z,100703.03
2023-01-13T14:58:52.105Z,100734.00
2023-01-13T15:02:53.831Z,100723.34
2023-01-13T15:06:57.438Z,100739.34
2023-01-13T15:11:01.580Z,100743.84
2023-01-13T15:15:06.658Z,100757.31
2023-01-13T15:19:10.169Z,100779.59
2023-01-13T15:23:12.365Z,100770.94
2023-01-13T15:27:19.515Z,100788.06
2023-01-13T15:31:21.919Z,100792.72
2023-01-13T15:35:26.241Z,100797.88
2023-01-13T15:39:27.995Z,100800.53
2023-01-13T15:43:48.325Z,100816.38
2023-01-13T15:47:50.103Z,100822.53
2023-01-13T15:51:51.983Z,100821.53
2023-01-13T15:55:58.541Z,100828.53
2023-01-13T16:00:14.522Z,100832.19
2023-01-13T16:04:16.208Z,100837.53
2023-01-13T16:08:22.665Z,100844.81
2023-01-13T16:12:24.495Z,100846.13
2023-01-13T16:16:28.589Z,100859.75
2023-01-13T16:20:30.859Z,100867.06
2023-01-13T16:24:32.727Z,100896.53
2023-01-13T16:28:35.971Z,100915.06
2023-01-13T16:32:37.764Z,100910.09
2023-01-13T16:36:39.711Z,100923.88
2023-01-13T16:40:41.438Z,100927.03
2023-01-13T16:44:44.195Z,100917.56
2023-01-13T16:48:46.436Z,100912.06
2023-01-13T16:52:48.339Z,100938.50
2023-01-13T16:56:50.073Z,100920.22
2023-01-13T17:00:53.029Z,100945.44
2023-01-13T17:04:54.855Z,100951.03
2023-01-13T17:09:01.429Z,100959.72
2023-01-13T17:13:14.805Z,100953.53
2023-01-13T17:17:25.750Z,100968.38
2023-01-13T17:21:27.765Z,100966.81
2023-01-13T17:25:29.658Z,100976.44
2023-01-13T17:29:32.967Z,100974.78
2023-01-13T17:33:37.246Z,100974.78
2023-01-13T17:37:38.976Z,100969.69
2023-01-13T17:41:40.721Z,100968.31
2023-01-13T17:45:42.498Z,100965.06
2023-01-13T17:49:44.331Z,100992.06
2023-01-13T17:53:46.679Z,100987.56
2023-01-13T17:57:48.399Z,100997.94
2023-01-13T18:01:51.212Z,101013.69
2023-01-13T18:05:52.963Z,101020.94
2023-01-13T18:09:54.703Z,101030.75
2023-01-13T18:14:00.309Z,101023.44
2023-01-13T18:18:02.069Z,101025.16
2023-01-13T18:22:22.385Z,101034.38
2023-01-13T18:26:42.693Z,101036.03
2023-01-13T18:30:44.499Z,101041.91
2023-01-13T18:34:46.367Z,101043.59
2023-01-13T18:38:49.865Z,101046.94
2023-01-13T18:42:51.741Z,101068.94
2023-01-13T18:46:53.554Z,101061.78
2023-01-13T18:50:55.251Z,101073.00
2023-01-13T18:54:57.015Z,101082.50
2023-01-13T18:58:59.270Z,101076.03
2023-01-13T19:07:08.820Z,101086.69
2023-01-13T19:11:10.586Z,101108.13
2023-01-13T19:15:12.335Z,101108.13
2023-01-13T19:19:14.111Z,101109.97
2023-01-13T19:23:15.920Z,101105.47
2023-01-13T19:27:19.526Z,101112.19
2023-01-13T19:31:21.308Z,101147.63
2023-01-13T19:35:23.046Z,101132.19
2023-01-13T19:39:25.135Z,101132.09
2023-01-13T19:43:46.019Z,101132.66
2023-01-13T19:47:47.859Z,101147.34
2023-01-13T19:51:50.750Z,101146.38
2023-01-13T19:55:52.980Z,101173.81
2023-01-13T19:59:54.658Z,101154.50
2023-01-13T20:04:02.860Z,101144.72
2023-01-13T20:08:04.642Z,101147.94
2023-01-13T20:12:11.656Z,101158.97
2023-01-13T20:16:13.475Z,101157.31
2023-01-13T20:20:16.250Z,101162.63
2023-01-13T20:24:18.046Z,101181.94
2023-01-13T20:28:20.105Z,101181.81
2023-01-13T20:32:21.890Z,101190.34
2023-01-13T20:36:31.330Z,101197.91
2023-01-13T20:40:33.325Z,101200.13
2023-01-13T20:44:35.320Z,101205.75
2023-01-13T20:48:37.053Z,101214.00
2023-01-13T20:52:38.982Z,101211.75
2023-01-13T20:56:40.993Z,101213.47
2023-01-13T21:00:42.793Z,101223.13
2023-01-13T21:04:44.584Z,101234.88
2023-01-13T21:08:50.274Z,101234.31
2023-01-13T21:13:10.378Z,101232.63
2023-01-13T21:17:32.645Z,101224.66
2023-01-13T21:21:34.459Z,101246.63
2023-01-13T21:25:39.518Z,101250.00
2023-01-13T21:29:41.299Z,101246.06
2023-01-13T21:33:43.831Z,101243.25
2023-01-13T21:37:45.642Z,101249.47
2023-01-13T21:42:05.958Z,101251.13
2023-01-13T21:46:35.549Z,101261.78
2023-01-13T21:50:38.588Z,101274.09
2023-01-13T21:55:00.927Z,101275.75
2023-01-13T21:59:02.876Z,101290.06
2023-01-13T22:03:06.402Z,101275.91
2023-01-13T22:07:08.211Z,101276.06
2023-01-13T22:11:10.091Z,101296.50
2023-01-13T22:15:15.009Z,101300.97
2023-01-13T22:19:18.332Z,101298.19
2023-01-13T22:23:21.451Z,101298.19
2023-01-13T22:27:25.544Z,101296.38
2023-01-13T22:31:27.385Z,101283.91
2023-01-13T22:35:29.164Z,101299.72
2023-01-13T22:39:31.353Z,101306.88
2023-01-13T22:43:34.278Z,101313.03
2023-01-13T22:47:36.075Z,101314.00
2023-01-13T22:51:37.823Z,101323.81
2023-01-13T22:55:39.599Z,101316.00
2023-01-13T22:59:41.343Z,101306.31
2023-01-13T23:03:46.466Z,101311.63
2023-01-13T23:07:48.293Z,101299.56
2023-01-13T23:11:50.048Z,101305.16
2023-01-13T23:15:51.807Z,101302.09
2023-01-13T23:19:53.563Z,101290.88
2023-01-13T23:23:56.782Z,101279.41
2023-01-13T23:27:59.507Z,101281.91
2023-01-13T23:32:01.373Z,101276.59
2023-01-13T23:36:05.904Z,101292.72
2023-01-13T23:40:09.760Z,101281.06
2023-01-13T23:44:11.561Z,101291.72
2023-01-13T23:48:14.499Z,101299.84
2023-01-13T23:52:16.523Z,101299.28
2023-01-13T23:56:21.780Z,101295.91
